Okolona, Kentucky
Current Conditions -  °F | °C
As of 3:56 PM on Tuesday 27 Jan 2015 (Local Time) from KSDF Reporting Station
Overcast Overcast  
Wind Chill: 29°   Ceiling: 3000
Heat Index: 35°   Visibility: 9mi
Dew Point: 21°   Wind: 8mph
Humidity: 57%   Direction: 20°NNE
Pressure: 30.12"   Gusts: NA
Location:  38.14°N, 85.69°W
Report Text: KSDF 272056Z 02007KT 9SM BKN030 OVC048 02/M06 A3012 RMK AO2 SLP203 T00171061 53010
Loading
Personal Weather Stations






























Interactive Weather Map New forecast layout! Learn more

10-Day Weather Forecast

Advertisements
Track Severe Weather on mobile